Time;durP1;ratioP1;P1;durP2;ratioP2;P2;SDS_P1;SDS_P2;PMS_P1;PMS_P2;Temp;Humidity;BMP_temperature;BMP_pressure;BME280_temperature;BME280_humidity;BME280_pressure;Samples;Min_cycle;Max_cycle;Signal;HPM_P1;HPM_P2
2022/05/27 00:02:14;;;;;;;6.95;1.80;;;14.40;99.90;;;;;;5034663;28;20025;-82
2022/05/27 00:04:40;;;;;;;6.10;2.17;;;14.40;99.90;;;;;;5032859;28;20037;-81
2022/05/27 00:07:06;;;;;;;3.05;1.58;;;14.50;99.90;;;;;;5032115;28;20029;-82
2022/05/27 00:09:32;;;;;;;4.82;1.63;;;14.40;99.90;;;;;;5034122;28;20105;-82
2022/05/27 00:11:57;;;;;;;4.03;2.00;;;14.50;99.90;;;;;;5033433;28;20477;-83
2022/05/27 00:14:23;;;;;;;2.55;1.30;;;14.50;99.90;;;;;;5032274;28;20548;-82
2022/05/27 00:16:49;;;;;;;6.03;1.60;;;14.50;99.90;;;;;;5026011;28;20025;-80
2022/05/27 00:19:16;;;;;;;2.80;1.10;;;14.60;99.90;;;;;;5024160;28;20018;-82
2022/05/27 00:21:43;;;;;;;3.83;1.30;;;14.60;99.90;;;;;;5023560;28;20030;-82
2022/05/27 00:24:09;;;;;;;3.67;1.17;;;14.60;99.90;;;;;;5024261;28;20038;-81
2022/05/27 00:26:36;;;;;;;4.35;1.48;;;14.60;99.90;;;;;;5024157;28;20073;-81
2022/05/27 00:29:02;;;;;;;;;;;14.70;99.90;;;;;;5025787;28;20523;-83
2022/05/27 00:31:28;;;;;;;3.42;1.27;;;14.70;99.90;;;;;;5033807;28;19988;-83
2022/05/27 00:33:54;;;;;;;4.72;1.58;;;14.60;99.90;;;;;;5024861;28;20065;-83
2022/05/27 00:36:20;;;;;;;2.88;1.30;;;14.60;99.90;;;;;;5020601;28;20422;-81
2022/05/27 00:38:45;;;;;;;3.95;1.30;;;14.60;99.90;;;;;;5025323;28;20018;-82
2022/05/27 00:41:12;;;;;;;3.28;1.40;;;14.60;99.90;;;;;;5019692;28;20116;-81
2022/05/27 00:43:40;;;;;;;4.03;1.40;;;14.60;99.90;;;;;;5024581;28;20030;-83
2022/05/27 00:46:19;;;;;;;4.22;1.70;;;14.60;99.90;;;;;;5021539;28;20030;-82
2022/05/27 00:48:50;;;;;;;3.78;1.40;;;14.60;99.90;;;;;;5021746;28;20021;-82
2022/05/27 00:51:21;;;;;;;4.20;1.35;;;14.60;99.90;;;;;;5042187;22;20794;-51
2022/05/27 00:53:53;;;;;;;4.57;1.17;;;14.60;99.90;;;;;;4991773;28;20030;-52
2022/05/27 00:56:23;;;;;;;4.15;1.50;;;14.60;99.90;;;;;;4990672;28;20436;-52
2022/05/27 00:58:54;;;;;;;3.60;1.10;;;14.60;99.90;;;;;;4991661;28;20041;-52
2022/05/27 01:01:20;;;;;;;5.45;1.42;;;14.60;99.90;;;;;;4994246;28;20122;-51
2022/05/27 01:03:47;;;;;;;2.35;1.23;;;14.60;99.90;;;;;;4992122;28;20026;-52
2022/05/27 01:06:13;;;;;;;2.58;1.13;;;14.60;99.90;;;;;;4992731;28;20088;-52
2022/05/27 01:08:39;;;;;;;4.78;1.17;;;14.50;99.90;;;;;;4974568;28;20030;-52
2022/05/27 01:11:17;;;;;;;4.63;2.10;;;14.50;99.90;;;;;;4992114;28;20117;-51
2022/05/27 01:13:48;;;;;;;5.15;1.60;;;14.50;99.90;;;;;;4992446;28;20109;-51
2022/05/27 01:16:41;;;;;;;4.72;1.92;;;14.40;99.90;;;;;;4992616;28;20122;-51
2022/05/27 01:22:40;;;;;;;4.80;2.13;;;14.40;99.90;;;;;;4992667;28;20042;-51
2022/05/27 01:25:14;;;;;;;10.95;2.17;;;14.30;99.90;;;;;;4992567;28;20632;-52
2022/05/27 01:27:52;;;;;;;9.32;3.17;;;14.20;99.90;;;;;;4992191;28;20466;-51
2022/05/27 01:30:22;;;;;;;7.55;2.60;;;14.20;99.90;;;;;;4992052;28;20027;-52
2022/05/27 01:33:06;;;;;;;5.65;2.13;;;14.10;99.90;;;;;;4991854;28;20038;-52
2022/05/27 01:35:46;;;;;;;8.55;2.30;;;14.10;99.90;;;;;;4992581;28;20030;-52
2022/05/27 01:38:18;;;;;;;5.15;2.47;;;14.00;99.90;;;;;;4991664;28;20165;-51
2022/05/27 01:40:58;;;;;;;7.53;2.28;;;14.00;99.90;;;;;;4992059;28;20041;-52
2022/05/27 01:43:33;;;;;;;6.72;1.92;;;13.90;99.90;;;;;;4992147;28;20026;-52
2022/05/27 01:46:29;;;;;;;5.68;1.98;;;13.90;99.90;;;;;;4992037;28;20057;-52
2022/05/27 01:49:18;;;;;;;5.13;2.30;;;13.80;99.90;;;;;;4990456;28;20057;-51
2022/05/27 01:52:07;;;;;;;5.13;2.13;;;13.80;99.90;;;;;;4993873;28;20054;-50
2022/05/27 01:54:41;;;;;;;4.57;1.90;;;13.70;99.90;;;;;;5010945;28;20042;-52
2022/05/27 01:57:12;;;;;;;6.82;1.92;;;13.70;99.90;;;;;;5010811;28;20065;-51
2022/05/27 01:59:44;;;;;;;6.55;2.90;;;13.60;99.90;;;;;;4993645;28;20022;-52
2022/05/27 02:02:19;;;;;;;5.10;1.95;;;13.70;99.90;;;;;;5011564;28;20033;-52
2022/05/27 02:04:51;;;;;;;3.45;1.90;;;13.60;99.90;;;;;;5011458;28;20030;-52
2022/05/27 02:07:26;;;;;;;3.78;2.20;;;13.60;99.90;;;;;;5011306;28;20030;-51
2022/05/27 02:10:14;;;;;;;7.85;2.42;;;13.60;99.90;;;;;;5010807;28;20056;-51
2022/05/27 02:13:10;;;;;;;8.70;2.85;;;13.60;99.90;;;;;;5011149;28;20529;-52
2022/05/27 02:15:40;;;;;;;3.72;1.92;;;13.60;99.90;;;;;;5010914;28;20040;-52
2022/05/27 02:18:19;;;;;;;5.25;2.20;;;13.50;99.90;;;;;;5010819;28;20061;-52
2022/05/27 02:20:51;;;;;;;5.22;2.35;;;13.50;99.90;;;;;;5011469;28;20026;-52
2022/05/27 02:23:26;;;;;;;8.73;3.35;;;13.40;99.90;;;;;;5010856;28;20036;-51
2022/05/27 02:25:56;;;;;;;5.82;2.00;;;13.40;99.90;;;;;;5011344;28;20155;-52
2022/05/27 02:28:28;;;;;;;5.40;2.17;;;13.40;99.90;;;;;;5010962;28;20104;-51
2022/05/27 02:31:05;;;;;;;3.42;1.83;;;13.40;99.90;;;;;;5010960;28;20030;-51
2022/05/27 02:36:28;;;;;;;6.43;1.95;;;13.30;99.90;;;;;;5011249;28;20496;-52
2022/05/27 02:38:54;;;;;;;5.85;1.60;;;13.30;99.90;;;;;;5010760;28;20437;-52
2022/05/27 02:41:23;;;;;;;2.40;1.60;;;13.30;99.90;;;;;;5010602;28;20121;-52
2022/05/27 02:43:58;;;;;;;6.63;1.95;;;13.30;99.90;;;;;;5010897;28;20041;-52
2022/05/27 02:46:41;;;;;;;4.53;1.67;;;13.30;99.90;;;;;;5010856;28;20137;-52
2022/05/27 02:49:15;;;;;;;6.25;1.55;;;13.30;99.90;;;;;;5010786;28;20022;-52
2022/05/27 02:51:59;;;;;;;3.47;1.90;;;13.30;99.90;;;;;;5010238;28;20523;-53
2022/05/27 02:54:32;;;;;;;5.57;1.52;;;13.40;99.90;;;;;;5010465;28;20029;-52
2022/05/27 02:57:21;;;;;;;3.53;1.45;;;13.40;99.90;;;;;;5010797;28;20026;-52
2022/05/27 02:59:51;;;;;;;3.92;1.35;;;13.40;99.90;;;;;;5010541;28;20067;-52
2022/05/27 03:02:17;;;;;;;3.80;1.38;;;13.40;99.90;;;;;;5010638;28;20473;-51
2022/05/27 03:04:55;;;;;;;4.10;1.20;;;13.50;99.90;;;;;;5010247;28;20129;-52
2022/05/27 03:07:30;;;;;;;;;;;13.50;99.90;;;;;;5011178;28;20499;-52
2022/05/27 03:10:17;;;;;;;3.35;1.08;;;13.60;99.90;;;;;;5014191;28;19959;-52
2022/05/27 03:12:58;;;;;;;4.93;1.20;;;13.60;99.90;;;;;;5014404;28;20034;-52
2022/05/27 03:15:59;;;;;;;2.33;1.23;;;13.70;99.90;;;;;;5014201;28;20640;-52
2022/05/27 03:18:33;;;;;;;4.82;1.10;;;13.70;99.90;;;;;;5014274;28;20022;-52
2022/05/27 03:21:08;;;;;;;5.13;1.60;;;13.70;99.90;;;;;;5014402;28;20030;-52
2022/05/27 03:23:50;;;;;;;3.85;1.20;;;13.80;99.90;;;;;;5014333;28;20030;-52
2022/05/27 03:26:15;;;;;;;4.43;1.17;;;13.70;99.90;;;;;;5014344;28;20030;-52
2022/05/27 03:29:00;;;;;;;4.30;1.20;;;13.70;99.90;;;;;;5013787;28;20022;-52
2022/05/27 03:31:40;;;;;;;4.95;1.77;;;13.80;99.90;;;;;;5014184;28;20697;-51
2022/05/27 03:34:12;;;;;;;3.10;1.50;;;13.70;99.90;;;;;;5014092;28;20032;-52
2022/05/27 03:36:53;;;;;;;3.60;1.20;;;13.80;99.90;;;;;;5013475;28;20029;-51
2022/05/27 03:39:31;;;;;;;3.63;1.65;;;13.80;99.90;;;;;;5013699;28;20449;-52
2022/05/27 03:42:02;;;;;;;;;;;13.80;99.90;;;;;;5014564;28;20040;-52
2022/05/27 03:44:29;;;;;;;4.10;1.60;;;13.80;99.90;;;;;;5013551;28;19913;-52
2022/05/27 03:46:57;;;;;;;3.38;1.40;;;13.80;99.90;;;;;;5013932;28;20532;-52
2022/05/27 03:49:23;;;;;;;8.15;1.40;;;13.80;99.90;;;;;;5013809;28;20188;-52
2022/05/27 03:52:03;;;;;;;13.82;2.20;;;13.80;99.90;;;;;;5013497;28;20477;-52
2022/05/27 03:54:29;;;;;;;9.27;1.80;;;13.80;99.90;;;;;;5013537;28;20029;-51
2022/05/27 03:56:55;;;;;;;7.85;1.52;;;13.80;99.90;;;;;;5013695;28;20033;-52
2022/05/27 03:59:22;;;;;;;4.82;1.45;;;13.80;99.90;;;;;;5013584;28;20026;-51
2022/05/27 04:01:50;;;;;;;6.40;1.83;;;13.70;99.90;;;;;;5013594;28;20030;-51
2022/05/27 04:04:20;;;;;;;5.03;1.80;;;13.80;99.90;;;;;;5013366;28;20026;-53
2022/05/27 04:06:47;;;;;;;3.28;1.65;;;13.80;99.90;;;;;;5006332;28;20117;-52
2022/05/27 04:09:13;;;;;;;4.35;1.42;;;13.80;99.90;;;;;;4993506;28;20022;-51
2022/05/27 04:11:39;;;;;;;3.10;1.47;;;13.80;99.90;;;;;;4993706;28;20451;-51
2022/05/27 04:14:06;;;;;;;4.93;1.55;;;13.90;99.90;;;;;;4992870;28;20033;-52
2022/05/27 04:16:31;;;;;;;10.15;1.70;;;13.80;99.90;;;;;;4993111;28;20199;-51
2022/05/27 04:18:57;;;;;;;6.20;1.40;;;13.80;99.90;;;;;;4993229;28;20633;-52
2022/05/27 04:21:23;;;;;;;4.70;1.38;;;13.80;99.90;;;;;;4991789;28;20526;-52
2022/05/27 04:23:49;;;;;;;6.57;1.73;;;13.90;99.90;;;;;;4992036;28;20026;-52
2022/05/27 04:26:15;;;;;;;6.35;1.60;;;13.90;99.90;;;;;;4992111;28;20042;-52
2022/05/27 04:28:41;;;;;;;2.83;1.38;;;13.90;99.90;;;;;;4992309;28;20386;-52
2022/05/27 04:31:07;;;;;;;2.90;1.42;;;13.90;99.90;;;;;;4992186;28;20430;-51
2022/05/27 04:33:33;;;;;;;6.65;1.30;;;13.90;99.90;;;;;;4986474;28;20037;-52
2022/05/27 04:36:00;;;;;;;8.02;1.60;;;14.00;99.90;;;;;;4981972;28;20038;-51
2022/05/27 04:38:26;;;;;;;;;;;14.00;99.90;;;;;;4983366;28;20019;-51
2022/05/27 04:40:52;;;;;;;5.72;1.60;;;14.00;99.90;;;;;;4981750;28;19928;-51
2022/05/27 04:43:18;;;;;;;5.97;1.90;;;14.00;99.90;;;;;;4983475;28;20022;-52
2022/05/27 04:45:44;;;;;;;6.50;2.33;;;14.00;99.90;;;;;;4983128;28;20482;-51
2022/05/27 04:48:11;;;;;;;4.45;1.55;;;14.00;99.90;;;;;;4986078;28;20034;-51
2022/05/27 04:50:37;;;;;;;5.85;2.35;;;14.10;99.90;;;;;;4979505;28;20023;-52
2022/05/27 04:53:04;;;;;;;8.77;2.55;;;14.10;99.90;;;;;;4992850;28;20046;-52
2022/05/27 04:55:32;;;;;;;7.90;3.00;;;14.10;99.90;;;;;;5011895;28;20025;-52
2022/05/27 04:58:02;;;;;;;13.70;7.07;;;14.10;99.90;;;;;;5010701;28;20034;-51
2022/05/27 05:00:31;;;;;;;7.47;3.80;;;14.20;99.90;;;;;;4993728;28;20037;-51
2022/05/27 05:02:57;;;;;;;7.28;2.30;;;14.20;99.90;;;;;;5011288;28;20200;-52
2022/05/27 05:05:27;;;;;;;7.77;2.43;;;14.20;99.90;;;;;;5011291;28;20436;-52
2022/05/27 05:07:59;;;;;;;7.25;2.30;;;14.20;99.90;;;;;;4979231;28;20286;-52
2022/05/27 05:10:26;;;;;;;6.78;2.42;;;14.20;99.90;;;;;;4970449;28;20494;-51
2022/05/27 05:12:52;;;;;;;7.57;2.38;;;14.20;99.90;;;;;;4971002;28;20046;-52
2022/05/27 05:15:19;;;;;;;9.70;2.55;;;14.20;99.90;;;;;;4971766;28;20081;-51
2022/05/27 05:17:45;;;;;;;6.82;2.28;;;14.30;99.90;;;;;;4971962;28;20058;-51
2022/05/27 05:20:14;;;;;;;5.35;1.77;;;14.20;99.90;;;;;;4969857;28;20038;-51
2022/05/27 05:22:40;;;;;;;7.22;2.20;;;14.20;99.90;;;;;;4971680;28;20509;-51
2022/05/27 05:25:07;;;;;;;5.75;2.10;;;14.30;99.90;;;;;;4971923;28;20030;-51
2022/05/27 05:27:34;;;;;;;4.13;2.13;;;14.30;99.90;;;;;;4972023;28;20037;-50
2022/05/27 05:30:01;;;;;;;6.20;2.75;;;14.20;99.90;;;;;;4972079;28;20101;-50
2022/05/27 05:32:27;;;;;;;5.78;1.98;;;14.30;99.90;;;;;;4971142;28;20158;-50
2022/05/27 05:34:58;;;;;;;9.02;2.05;;;14.40;99.90;;;;;;4971919;28;20058;-50
2022/05/27 05:37:24;;;;;;;8.10;1.95;;;14.50;99.90;;;;;;4971916;28;20026;-51
2022/05/27 05:39:50;;;;;;;6.43;2.53;;;14.50;99.90;;;;;;4971575;28;20109;-51
2022/05/27 05:42:15;;;;;;;6.88;2.13;;;14.60;99.90;;;;;;4971617;28;20578;-50
2022/05/27 05:44:41;;;;;;;5.90;2.47;;;14.60;99.90;;;;;;4971572;28;20029;-51
2022/05/27 05:47:07;;;;;;;7.60;2.20;;;14.60;99.90;;;;;;4971674;28;20045;-52
2022/05/27 05:49:33;;;;;;;6.35;2.47;;;14.70;99.90;;;;;;4971547;28;20085;-50
2022/05/27 05:51:59;;;;;;;4.70;1.95;;;14.70;99.90;;;;;;4971873;28;20059;-50
2022/05/27 05:54:27;;;;;;;11.05;2.35;;;14.70;99.90;;;;;;5006947;28;20599;-51
2022/05/27 05:56:53;;;;;;;8.23;1.77;;;14.80;99.90;;;;;;5010512;28;20041;-50
2022/05/27 05:59:20;;;;;;;6.43;1.83;;;14.80;99.90;;;;;;5010633;28;20030;-51
2022/05/27 06:01:47;;;;;;;7.10;2.10;;;14.90;99.90;;;;;;5010684;28;20079;-51
2022/05/27 06:04:13;;;;;;;5.18;2.00;;;14.90;99.90;;;;;;5010450;28;20172;-50
2022/05/27 06:06:40;;;;;;;4.95;2.00;;;14.90;99.90;;;;;;5010262;28;20491;-50
2022/05/27 06:09:07;;;;;;;4.85;1.77;;;14.80;99.90;;;;;;5010325;28;20026;-51
2022/05/27 06:11:34;;;;;;;7.07;1.88;;;14.80;99.90;;;;;;5010167;28;20041;-50
2022/05/27 06:13:59;;;;;;;5.85;2.53;;;14.80;99.90;;;;;;5000198;28;20026;-50
2022/05/27 06:16:25;;;;;;;9.27;2.25;;;14.80;99.90;;;;;;4973046;28;20121;-50
2022/05/27 06:18:51;;;;;;;10.13;4.10;;;14.90;99.90;;;;;;4990609;28;20034;-50
2022/05/27 06:21:16;;;;;;;8.80;2.72;;;14.90;99.90;;;;;;4994522;28;20496;-50
2022/05/27 06:23:44;;;;;;;5.53;2.25;;;15.00;99.90;;;;;;5005718;28;20022;-51
2022/05/27 06:26:11;;;;;;;3.40;2.03;;;15.10;99.90;;;;;;4971162;28;20194;-50
2022/05/27 06:34:24;;;;;;;4.28;2.17;;;15.20;99.90;;;;;;5010274;28;20467;-50
2022/05/27 06:37:14;;;;;;;5.95;2.33;;;15.30;99.90;;;;;;5009972;28;20029;-51
2022/05/27 06:39:41;;;;;;;8.27;2.47;;;15.40;99.90;;;;;;5003914;28;20037;-51
2022/05/27 06:42:09;;;;;;;5.75;2.28;;;15.40;99.90;;;;;;4998982;28;20049;-50
2022/05/27 06:44:36;;;;;;;4.45;2.35;;;15.40;99.90;;;;;;4989677;28;20054;-50
2022/05/27 06:47:03;;;;;;;5.25;2.45;;;15.60;99.90;;;;;;4990253;28;20076;-50
2022/05/27 06:49:29;;;;;;;8.68;2.20;;;15.60;99.90;;;;;;4990327;28;20548;-50
2022/05/27 06:51:55;;;;;;;4.55;1.60;;;15.60;99.90;;;;;;4989926;28;20074;-50
2022/05/27 06:54:22;;;;;;;6.28;2.40;;;15.70;99.90;;;;;;5006758;28;20022;-50
2022/05/27 06:56:50;;;;;;;;;;;15.70;99.90;;;;;;4992704;28;20033;-50
2022/05/27 06:59:16;;;;;;;3.85;1.75;;;15.70;99.90;;;;;;5009709;28;19909;-50
2022/05/27 07:01:44;;;;;;;6.82;2.42;;;15.90;99.90;;;;;;5009863;28;20485;-51
2022/05/27 07:04:10;;;;;;;6.30;2.60;;;15.90;99.90;;;;;;5009469;28;20036;-50
2022/05/27 07:06:38;;;;;;;9.57;3.15;;;16.10;99.90;;;;;;5009786;28;20401;-51
2022/05/27 07:09:05;;;;;;;6.35;1.73;;;16.10;99.90;;;;;;5009898;28;20033;-51
2022/05/27 07:11:31;;;;;;;6.60;2.10;;;16.20;99.90;;;;;;5009593;28;20504;-51
2022/05/27 07:13:57;;;;;;;7.28;1.85;;;16.30;99.90;;;;;;5009157;28;20025;-51
2022/05/27 07:16:22;;;;;;;10.52;2.05;;;16.50;99.90;;;;;;5009846;28;20076;-51
2022/05/27 07:18:48;;;;;;;5.68;2.47;;;16.60;99.90;;;;;;5009543;28;20048;-51
2022/05/27 07:21:14;;;;;;;4.38;2.20;;;16.60;99.90;;;;;;5009599;28;20041;-51
2022/05/27 07:23:39;;;;;;;8.88;2.30;;;16.70;99.90;;;;;;5009352;28;20025;-51
2022/05/27 07:26:05;;;;;;;4.65;1.83;;;16.80;99.90;;;;;;5009372;28;20093;-51
2022/05/27 07:28:31;;;;;;;6.25;2.38;;;16.80;99.90;;;;;;5008172;28;20386;-51
2022/05/27 07:31:01;;;;;;;7.72;2.35;;;16.90;99.90;;;;;;5009380;28;20510;-51
2022/05/27 07:33:28;;;;;;;14.15;2.50;;;17.00;99.90;;;;;;5009481;28;20125;-53
2022/05/27 07:35:55;;;;;;;6.20;2.22;;;17.10;99.90;;;;;;5009199;28;20481;-51
2022/05/27 07:38:21;;;;;;;6.93;2.47;;;17.10;99.90;;;;;;5009437;28;20431;-50
2022/05/27 07:40:46;;;;;;;4.53;2.00;;;17.10;99.90;;;;;;5009368;28;20034;-50
2022/05/27 07:43:13;;;;;;;4.75;1.90;;;17.20;99.90;;;;;;5009128;28;20030;-51
2022/05/27 07:45:41;;;;;;;8.73;1.98;;;17.20;99.90;;;;;;5009319;28;20092;-52
2022/05/27 07:48:08;;;;;;;4.38;1.58;;;17.30;99.90;;;;;;5009047;28;20496;-50
2022/05/27 07:50:34;;;;;;;5.00;1.40;;;17.40;99.90;;;;;;5009521;28;20056;-50
2022/05/27 07:53:00;;;;;;;2.60;1.13;;;17.50;99.90;;;;;;5009073;28;20127;-51
2022/05/27 07:55:25;;;;;;;5.25;1.55;;;17.60;99.90;;;;;;5010252;28;20477;-51
2022/05/27 07:57:52;;;;;;;6.80;1.70;;;17.70;99.90;;;;;;5012524;28;20038;-50
2022/05/27 08:00:20;;;;;;;5.90;1.40;;;17.80;99.90;;;;;;5012930;28;20025;-52
2022/05/27 08:02:46;;;;;;;4.55;1.35;;;17.90;99.90;;;;;;5012872;28;20045;-51
2022/05/27 08:05:15;;;;;;;5.20;1.60;;;18.00;99.90;;;;;;5012419;28;20702;-50
2022/05/27 08:07:41;;;;;;;5.78;1.40;;;17.90;99.90;;;;;;5012757;28;20026;-51
2022/05/27 08:10:07;;;;;;;4.32;1.20;;;18.10;99.90;;;;;;5012585;28;20113;-51
2022/05/27 08:12:33;;;;;;;4.13;1.80;;;18.10;99.90;;;;;;5012046;28;20278;-51
2022/05/27 08:14:59;;;;;;;3.50;1.90;;;18.40;99.90;;;;;;5012354;28;20260;-51
2022/05/27 08:17:25;;;;;;;7.25;1.77;;;18.50;99.90;;;;;;5012681;28;20040;-51
2022/05/27 08:19:52;;;;;;;2.78;0.95;;;18.60;99.90;;;;;;5012494;28;20057;-51
2022/05/27 08:22:18;;;;;;;9.48;1.67;;;18.70;99.90;;;;;;5012142;28;20022;-51
2022/05/27 08:24:44;;;;;;;2.83;1.40;;;18.60;99.90;;;;;;5011798;28;20068;-50
2022/05/27 08:27:10;;;;;;;3.35;1.45;;;18.70;99.90;;;;;;5011908;28;20061;-50
2022/05/27 08:29:36;;;;;;;4.75;1.38;;;18.80;99.90;;;;;;5011756;28;20088;-51
2022/05/27 08:32:03;;;;;;;5.18;1.70;;;19.10;99.90;;;;;;5012199;28;20072;-51
2022/05/27 08:40:01;;;;;;;3.25;1.40;;;19.00;99.90;;;;;;5011833;28;20080;-52
2022/05/27 08:42:46;;;;;;;6.30;1.77;;;18.90;99.90;;;;;;5012106;28;20026;-51
2022/05/27 08:45:21;;;;;;;6.85;1.55;;;19.00;99.90;;;;;;5011872;28;20088;-51
2022/05/27 08:47:56;;;;;;;5.75;1.27;;;19.00;99.90;;;;;;5012078;28;20101;-51
2022/05/27 08:50:26;;;;;;;4.00;0.90;;;19.00;99.90;;;;;;5012005;28;20021;-51
2022/05/27 08:53:13;;;;;;;3.65;1.48;;;19.10;99.90;;;;;;5011365;28;20081;-51
2022/05/27 09:01:21;;;;;;;5.50;1.10;;;19.30;99.90;;;;;;5011779;28;20496;-51
2022/05/27 09:04:03;;;;;;;2.90;1.10;;;19.20;99.90;;;;;;5011320;28;20030;-51
2022/05/27 09:06:52;;;;;;;2.88;1.10;;;19.30;99.90;;;;;;5011517;28;20080;-51
2022/05/27 09:09:20;;;;;;;;;;;19.40;99.90;;;;;;5012297;28;20032;-51
2022/05/27 09:11:57;;;;;;;7.07;1.00;;;19.50;99.90;;;;;;5011633;28;19964;-50
2022/05/27 09:14:26;;;;;;;6.68;1.65;;;19.60;99.90;;;;;;5011093;28;20513;-51
2022/05/27 09:17:15;;;;;;;2.42;1.10;;;19.60;99.90;;;;;;5011320;28;20061;-50
2022/05/27 09:19:59;;;;;;;4.07;1.27;;;19.50;99.90;;;;;;5011408;28;20022;-51
2022/05/27 09:22:52;;;;;;;2.75;1.10;;;19.60;99.90;;;;;;5011416;28;20105;-50
2022/05/27 09:25:25;;;;;;;8.45;1.55;;;19.90;99.90;;;;;;5011029;28;20120;-51
2022/05/27 09:28:28;;;;;;;5.25;1.25;;;19.90;99.90;;;;;;5010910;28;20022;-51
2022/05/27 09:30:57;;;;;;;6.75;1.38;;;19.80;99.90;;;;;;5010873;28;20053;-52
2022/05/27 09:33:26;;;;;;;6.53;1.30;;;19.40;99.90;;;;;;5010745;28;20048;-51
2022/05/27 09:36:05;;;;;;;6.22;1.90;;;19.50;99.90;;;;;;5010544;28;20109;-51
2022/05/27 09:38:34;;;;;;;5.93;1.30;;;19.50;99.90;;;;;;5011327;28;20496;-51
2022/05/27 09:41:08;;;;;;;9.65;1.73;;;19.50;99.90;;;;;;5011062;28;20041;-52
2022/05/27 09:43:46;;;;;;;7.65;1.83;;;19.60;99.90;;;;;;5010929;28;20520;-51
2022/05/27 09:46:27;;;;;;;9.93;1.10;;;19.50;99.90;;;;;;5010421;28;20034;-52
2022/05/27 09:48:56;;;;;;;4.10;1.35;;;19.60;99.90;;;;;;5010944;28;20025;-52
2022/05/27 09:51:24;;;;;;;4.07;1.25;;;19.70;99.90;;;;;;5010675;28;20543;-51
2022/05/27 09:53:53;;;;;;;8.18;1.85;;;19.80;99.90;;;;;;5010764;28;20032;-51
2022/05/27 09:56:39;;;;;;;6.28;1.50;;;19.70;99.90;;;;;;5010298;28;20466;-51
2022/05/27 09:59:23;;;;;;;6.40;1.20;;;19.70;99.90;;;;;;5010487;28;20034;-51
2022/05/27 10:01:49;;;;;;;3.70;1.63;;;19.70;99.90;;;;;;5010478;28;20432;-52
2022/05/27 10:04:16;;;;;;;8.65;2.17;;;19.50;99.90;;;;;;5010438;28;20026;-51
2022/05/27 10:06:43;;;;;;;7.68;1.42;;;19.50;99.90;;;;;;5010515;28;20022;-51
2022/05/27 10:09:24;;;;;;;7.55;1.27;;;19.50;99.90;;;;;;5010421;28;20081;-51
2022/05/27 10:11:50;;;;;;;3.92;1.13;;;19.50;99.90;;;;;;5010292;28;20041;-52
2022/05/27 10:14:23;;;;;;;5.53;1.30;;;19.50;99.90;;;;;;5010237;28;20030;-51
2022/05/27 10:17:13;;;;;;;7.78;1.20;;;19.40;99.90;;;;;;5010481;28;20052;-52
2022/05/27 10:19:47;;;;;;;4.05;1.10;;;19.40;99.90;;;;;;5009899;28;20105;-51
2022/05/27 10:22:26;;;;;;;3.55;1.38;;;19.50;99.90;;;;;;5010585;28;20041;-51
2022/05/27 10:25:16;;;;;;;3.95;1.38;;;19.50;99.90;;;;;;5010493;28;20029;-52
2022/05/27 10:27:52;;;;;;;4.50;1.23;;;19.40;99.90;;;;;;5010594;28;20026;-52
2022/05/27 10:30:23;;;;;;;4.15;1.33;;;19.30;99.90;;;;;;5010292;28;20084;-52
2022/05/27 10:32:49;;;;;;;4.70;1.00;;;19.30;99.90;;;;;;5010054;28;20034;-52
2022/05/27 10:35:21;;;;;;;3.20;1.00;;;19.20;99.90;;;;;;5010144;28;20223;-52
2022/05/27 10:38:07;;;;;;;6.80;1.58;;;19.10;99.90;;;;;;4988965;28;20035;-52
2022/05/27 10:40:35;;;;;;;5.85;1.30;;;19.10;99.90;;;;;;4970059;28;20478;-51
2022/05/27 10:43:38;;;;;;;4.65;1.30;;;19.10;99.90;;;;;;4970278;28;20041;-53
2022/05/27 10:46:05;;;;;;;6.57;1.40;;;19.10;99.90;;;;;;4971743;28;20035;-52
2022/05/27 10:48:43;;;;;;;7.97;1.73;;;19.10;99.90;;;;;;4970589;28;20753;-53
2022/05/27 10:51:28;;;;;;;;;;;19.10;99.90;;;;;;4971103;28;20034;-50
2022/05/27 10:54:24;;;;;;;6.57;1.50;;;19.00;99.90;;;;;;4987539;28;19905;-50
2022/05/27 11:03:31;;;;;;;3.75;1.95;;;18.60;99.90;;;;;;4989759;28;20130;-50
2022/05/27 11:06:18;;;;;;;5.97;1.20;;;18.80;99.90;;;;;;4989557;28;20034;-50
2022/05/27 11:09:11;;;;;;;5.30;1.33;;;18.80;99.90;;;;;;4986364;28;20025;-50
2022/05/27 11:11:44;;;;;;;9.02;1.40;;;18.90;99.90;;;;;;4986408;28;20254;-51
2022/05/27 11:17:25;;;;;;;5.82;1.30;;;18.90;99.90;;;;;;4988187;28;20046;-51
2022/05/27 11:20:15;;;;;;;2.95;1.20;;;18.90;99.90;;;;;;4989772;28;20486;-51
2022/05/27 11:23:07;;;;;;;9.32;1.85;;;18.60;99.90;;;;;;4989907;28;20019;-51
2022/05/27 11:26:09;;;;;;;3.63;1.50;;;18.50;99.90;;;;;;4989407;28;20548;-50
2022/05/27 11:28:59;;;;;;;8.43;1.42;;;18.40;99.90;;;;;;4989849;28;20037;-50
2022/05/27 11:32:01;;;;;;;7.93;1.60;;;18.30;99.90;;;;;;4992840;28;20022;-51
2022/05/27 11:34:34;;;;;;;4.78;1.27;;;18.30;99.90;;;;;;4993061;28;20022;-51
2022/05/27 11:37:23;;;;;;;5.13;1.70;;;18.10;99.90;;;;;;4993331;28;20030;-51
2022/05/27 11:39:55;;;;;;;5.72;1.67;;;17.80;99.90;;;;;;4992739;28;20401;-50
2022/05/27 11:43:05;;;;;;;5.00;1.85;;;17.60;99.90;;;;;;4992316;28;20026;-51
2022/05/27 11:45:32;;;;;;;9.82;1.67;;;17.50;99.90;;;;;;5008710;28;20070;-50
2022/05/27 11:48:05;;;;;;;4.43;2.05;;;17.50;99.90;;;;;;4994563;28;20468;-51
2022/05/27 11:50:55;;;;;;;11.43;3.30;;;17.50;99.90;;;;;;4993546;28;20125;-51
2022/05/27 11:53:38;;;;;;;10.15;3.72;;;17.40;99.90;;;;;;4992844;28;20484;-51
2022/05/27 11:56:58;;;;;;;5.90;2.78;;;17.40;99.90;;;;;;4992717;28;20030;-50
2022/05/27 11:59:39;;;;;;;9.15;2.75;;;17.20;99.90;;;;;;4942219;29;20027;-50
2022/05/27 12:02:32;;;;;;;5.90;2.65;;;17.00;99.90;;;;;;4985994;28;20065;-50
2022/05/27 12:05:01;;;;;;;8.10;2.85;;;16.60;99.90;;;;;;4990836;28;20037;-51
2022/05/27 12:07:47;;;;;;;8.20;3.03;;;16.70;99.90;;;;;;4998111;28;20128;-50
2022/05/27 12:10:21;;;;;;;7.28;2.80;;;16.50;99.90;;;;;;5001450;28;20026;-51
2022/05/27 12:12:47;;;;;;;7.95;2.58;;;16.50;99.90;;;;;;4992918;28;20482;-50
2022/05/27 12:15:28;;;;;;;8.00;3.40;;;16.50;99.90;;;;;;5008215;28;20461;-50
2022/05/27 12:17:56;;;;;;;12.43;2.15;;;16.20;99.90;;;;;;5012148;28;20211;-50
2022/05/27 12:20:27;;;;;;;3.25;1.70;;;15.50;99.90;;;;;;5012312;28;20393;-50
2022/05/27 12:22:54;;;;;;;3.15;1.70;;;15.10;99.90;;;;;;5012239;28;20397;-50
2022/05/27 12:25:25;;;;;;;1.93;1.10;;;14.40;99.90;;;;;;5012220;28;20034;-50
2022/05/27 12:27:55;;;;;;;3.10;1.05;;;14.20;99.90;;;;;;4995404;28;20728;-51
2022/05/27 12:30:31;;;;;;;1.40;0.80;;;14.00;99.90;;;;;;4992545;28;20493;-50
2022/05/27 12:32:58;;;;;;;4.43;1.10;;;13.80;99.90;;;;;;4993388;28;20054;-50
2022/05/27 12:35:31;;;;;;;2.40;1.00;;;13.60;99.90;;;;;;4992202;28;20061;-52
2022/05/27 12:38:21;;;;;;;2.05;0.82;;;13.50;99.90;;;;;;4990760;28;20490;-51
2022/05/27 12:41:07;;;;;;;3.72;1.40;;;13.40;99.90;;;;;;4990870;28;20089;-51
2022/05/27 12:43:36;;;;;;;4.05;1.67;;;13.40;99.90;;;;;;4989637;28;20061;-52
2022/05/27 12:46:02;;;;;;;3.95;1.20;;;13.30;99.90;;;;;;5009606;28;20105;-51
2022/05/27 12:48:41;;;;;;;4.13;1.42;;;13.30;99.90;;;;;;5010493;28;20113;-50
2022/05/27 12:51:16;;;;;;;7.97;1.38;;;13.20;99.90;;;;;;5011451;28;20025;-51
2022/05/27 12:53:51;;;;;;;3.10;1.65;;;13.30;99.90;;;;;;5010958;28;20139;-50
2022/05/27 13:02:14;;;;;;;3.20;0.90;;;13.30;99.90;;;;;;5010935;28;20100;-51
2022/05/27 13:04:57;;;;;;;2.63;1.10;;;13.20;99.90;;;;;;5001657;28;20026;-50
2022/05/27 13:07:37;;;;;;;2.75;1.60;;;13.20;99.90;;;;;;4991624;28;20030;-51
2022/05/27 13:10:18;;;;;;;4.05;1.42;;;13.20;99.90;;;;;;4991810;28;20117;-51
2022/05/27 13:12:56;;;;;;;3.42;1.40;;;13.10;99.90;;;;;;4991927;28;20120;-51
2022/05/27 13:15:43;;;;;;;2.42;1.90;;;13.20;99.90;;;;;;4991869;28;20158;-50
2022/05/27 13:18:13;;;;;;;4.05;2.33;;;13.10;99.90;;;;;;4991341;28;20034;-51
2022/05/27 13:20:54;;;;;;;3.38;1.98;;;13.10;99.90;;;;;;4991612;28;20026;-51
2022/05/27 13:23:26;;;;;;;4.32;2.20;;;13.10;99.90;;;;;;4991332;28;20080;-50
2022/05/27 13:26:03;;;;;;;4.85;2.35;;;13.10;99.90;;;;;;4991674;28;20026;-51
2022/05/27 13:28:34;;;;;;;5.32;3.50;;;13.10;99.90;;;;;;4991098;28;20081;-51
2022/05/27 13:31:03;;;;;;;4.97;2.88;;;13.10;99.90;;;;;;4991381;28;20026;-51
2022/05/27 13:33:37;;;;;;;6.82;4.00;;;13.10;99.90;;;;;;4990941;28;20034;-51
2022/05/27 13:36:17;;;;;;;7.70;3.45;;;13.00;99.90;;;;;;4991307;28;20435;-51
2022/05/27 13:38:47;;;;;;;6.90;3.03;;;13.10;99.90;;;;;;4990847;28;20023;-50
2022/05/27 13:41:17;;;;;;;5.78;2.95;;;13.00;99.90;;;;;;4991238;28;20087;-51
2022/05/27 13:43:46;;;;;;;6.57;2.83;;;13.00;99.90;;;;;;4989390;28;20401;-50
2022/05/27 13:46:21;;;;;;;5.95;2.85;;;13.00;99.90;;;;;;4990864;28;20030;-51
2022/05/27 13:49:08;;;;;;;4.85;2.55;;;13.00;99.90;;;;;;4989442;28;20037;-50
2022/05/27 13:51:40;;;;;;;4.38;2.50;;;12.90;99.90;;;;;;4990537;28;20054;-51
2022/05/27 13:54:14;;;;;;;10.57;3.78;;;13.00;99.90;;;;;;4989844;28;20030;-51
2022/05/27 13:56:54;;;;;;;11.73;4.45;;;13.00;99.90;;;;;;4995257;28;20027;-50